Kaleen Mc Allister — WDB3847 — position and weather

sailwx.info

Track history (hours):
 
Tides and Currents Weather Stations Pressure Air Temp Water Temp Dewpoint Dewpoint Depression Visibility Wind Speed Wind Dir Waves Ship Positions

Kaleen Mc Allister

Owner: MC ALLISTER TOWING & TRANSPORTATION INC, NEW YORK, NY. More information available from US FCC via Universal Licensing System and Coast Guard Vessel Documentation Center.

Last reported at 2017-Jan-20 19:33 UTC. Time now 2017-Jan-20 20:11 UTC.
Position N 39°16' W 076°35'.

Length 31 m; draft 4 m.

Type: Tug. MMSI: 366891960.

Date/timePositionNaut miles runAvg speedWind from/ knotsBaromVisibWave heightAir tempDewpointWater temp
2017-Jan-20 19:33N 39°16' W 076°35'0 0.0
2017-Jan-20 18:25N 39°16' W 076°35'0 0.0
2017-Jan-20 17:33N 39°16' W 076°35'0 0.0
2017-Jan-20 16:33N 39°16' W 076°35'0 0.0
2017-Jan-20 15:33N 39°16' W 076°35'0 0.0
2017-Jan-20 14:31N 39°16' W 076°35'0 0.0
2017-Jan-20 13:31N 39°16' W 076°35'0 0.0
2017-Jan-20 12:33N 39°16' W 076°35'0 0.0
2017-Jan-20 11:33N 39°16' W 076°35'0 0.0
2017-Jan-20 10:33N 39°16' W 076°35'0 0.0
2017-Jan-20 09:33N 39°16' W 076°35'0 0.0
2017-Jan-20 08:33N 39°16' W 076°35'0 0.0
2017-Jan-20 07:33N 39°16' W 076°35'0 0.0
2017-Jan-20 06:33N 39°16' W 076°35'0 0.0
2017-Jan-20 05:33N 39°16' W 076°35'0 0.0
2017-Jan-20 04:33N 39°16' W 076°35'0 0.0
2017-Jan-20 03:33N 39°16' W 076°35'0 0.0
2017-Jan-20 02:31N 39°16' W 076°35'0 0.0
2017-Jan-20 01:30N 39°16' W 076°35'0 0.0
2017-Jan-20 00:33N 39°16' W 076°35'0 0.0
2017-Jan-19 23:33N 39°16' W 076°35'0 0.0
2017-Jan-19 22:33N 39°16' W 076°35'0 0.1
2017-Jan-19 21:33N 39°16' W 076°35'3 2.8
2017-Jan-19 20:32N 39°13' W 076°35'3 2.8
2017-Jan-19 19:33N 39°16' W 076°35'0 0.0
2017-Jan-19 17:33N 39°16' W 076°35'0 0.0
2017-Jan-19 16:32N 39°16' W 076°35'0 0.0
2017-Jan-19 15:33N 39°16' W 076°35'0 0.0
2017-Jan-19 14:32N 39°16' W 076°35'0 0.0
2017-Jan-19 13:33N 39°16' W 076°35'0 0.0
2017-Jan-19 12:33N 39°16' W 076°35'0 0.0
2017-Jan-19 11:33N 39°16' W 076°35'0 0.0
2017-Jan-19 10:33N 39°16' W 076°35'2 1.6
2017-Jan-19 09:33N 39°15' W 076°34'4 4.2
2017-Jan-19 08:33N 39°13' W 076°29'1 1.1
2017-Jan-19 07:33N 39°12' W 076°30'6 5.6
2017-Jan-19 06:33N 39°16' W 076°35'0 0.0
2017-Jan-19 05:33N 39°16' W 076°35'0 0.0
2017-Jan-19 04:33N 39°16' W 076°35'0 0.0
2017-Jan-19 03:33N 39°16' W 076°35'0 0.0
2017-Jan-19 02:33N 39°16' W 076°35'0 0.0
2017-Jan-19 01:33N 39°16' W 076°35'0 0.0
2017-Jan-19 00:33N 39°16' W 076°35'1 1.1
2017-Jan-18 23:33N 39°15' W 076°35'1 1.1
2017-Jan-18 22:33N 39°16' W 076°35'0 0.0
2017-Jan-18 21:33N 39°16' W 076°35'0 0.0
2017-Jan-18 20:33N 39°16' W 076°35'0 0.0
2017-Jan-18 19:33N 39°16' W 076°35'1 0.9
2017-Jan-18 18:33N 39°15' W 076°34'2 1.7
2017-Jan-18 17:33N 39°15' W 076°32'1 1.0
2017-Jan-18 16:33N 39°14' W 076°33'1 1.1
2017-Jan-18 15:32N 39°13' W 076°33'1 1.3
2017-Jan-18 14:33N 39°14' W 076°32'0 0.0
2017-Jan-18 13:33N 39°14' W 076°32'1 1.0
2017-Jan-18 12:33N 39°15' W 076°32'1 0.9
2017-Jan-18 11:33N 39°15' W 076°33'1 1.3
2017-Jan-18 10:33N 39°16' W 076°34'0 0.4
2017-Jan-18 09:30N 39°16' W 076°35'0 0.0
2017-Jan-18 08:30N 39°16' W 076°35'0 0.0
2017-Jan-18 07:30N 39°16' W 076°35'0 0.0
2017-Jan-18 06:30N 39°16' W 076°35'0 0.0
2017-Jan-18 05:30N 39°16' W 076°35'0 0.0
2017-Jan-18 04:25N 39°16' W 076°35'0 0.0
2017-Jan-18 03:30N 39°16' W 076°35'0 0.0
2017-Jan-18 02:30N 39°16' W 076°35'0 0.0
2017-Jan-18 01:30N 39°16' W 076°35'0 0.0
2017-Jan-18 00:30N 39°16' W 076°35'0 0.0
2017-Jan-17 23:30N 39°16' W 076°35'0 0.0
2017-Jan-17 22:30N 39°16' W 076°35'0 0.0
2017-Jan-17 21:30N 39°16' W 076°35'0 0.0
2017-Jan-17 20:30N 39°16' W 076°35'0 0.0
2017-Jan-17 19:30N 39°16' W 076°35'0 0.0
2017-Jan-17 18:30N 39°16' W 076°35'0 0.0
2017-Jan-17 17:33N 39°16' W 076°35'0 0.0
2017-Jan-17 16:30N 39°16' W 076°35'0 0.0
2017-Jan-17 15:30N 39°16' W 076°35'0 0.0
2017-Jan-17 14:33N 39°16' W 076°35'0 0.0
2017-Jan-17 13:33N 39°16' W 076°35'0 0.0
2017-Jan-17 12:33N 39°16' W 076°35'2 2.4
2017-Jan-17 11:33N 39°14' W 076°33'2 2.5
2017-Jan-17 10:33N 39°16' W 076°35'0 0.0
2017-Jan-17 09:33N 39°16' W 076°35'0 0.0
2017-Jan-17 08:33N 39°16' W 076°35'0 0.0
2017-Jan-17 07:33N 39°16' W 076°35'0 0.0
2017-Jan-17 06:33N 39°16' W 076°35'0 0.0
2017-Jan-17 05:33N 39°16' W 076°35'0 0.0
2017-Jan-17 04:33N 39°16' W 076°35'0 0.0
2017-Jan-17 03:33N 39°16' W 076°35'0 0.0
2017-Jan-17 02:33N 39°16' W 076°35'0 0.0
2017-Jan-17 01:33N 39°16' W 076°35'0 0.0
2017-Jan-17 00:33N 39°16' W 076°35'0 0.0
2017-Jan-16 23:33N 39°16' W 076°35'0 0.0
2017-Jan-16 22:33N 39°16' W 076°35'0 0.3
2017-Jan-16 21:33N 39°16' W 076°34'0 0.4
2017-Jan-16 20:33N 39°16' W 076°35'0 0.1
2017-Jan-16 19:33N 39°16' W 076°35'0 0.0
2017-Jan-16 18:33N 39°16' W 076°35'0 0.0
2017-Jan-16 17:33N 39°16' W 076°35'0 0.0
2017-Jan-16 16:31N 39°16' W 076°35'0 0.0
2017-Jan-16 15:33N 39°16' W 076°35'0 0.0
2017-Jan-16 14:33N 39°16' W 076°35'0 0.0
2017-Jan-16 13:33N 39°16' W 076°35'0 0.0
2017-Jan-16 12:33N 39°16' W 076°35'0 0.0
2017-Jan-16 11:33N 39°16' W 076°35'0 0.0
2017-Jan-16 10:33N 39°16' W 076°35'0 0.0
2017-Jan-16 09:33N 39°16' W 076°35'0 0.0
2017-Jan-16 08:33N 39°16' W 076°35'0 0.0
2017-Jan-16 07:33N 39°16' W 076°35'0 0.0
2017-Jan-16 06:33N 39°16' W 076°35'0 0.0
2017-Jan-16 05:33N 39°16' W 076°35'0 0.0
2017-Jan-16 04:33N 39°16' W 076°35'0 0.0
2017-Jan-16 03:33N 39°16' W 076°35'0 0.0
2017-Jan-16 02:33N 39°16' W 076°35'0 0.0
2017-Jan-16 01:33N 39°16' W 076°35'0 0.0
2017-Jan-16 00:33N 39°16' W 076°35'0 0.0
2017-Jan-15 23:33N 39°16' W 076°35'0 0.0
2017-Jan-15 22:33N 39°16' W 076°35'0 0.0
2017-Jan-15 21:33N 39°16' W 076°35'0 0.0
2017-Jan-15 20:33N 39°16' W 076°35'0 0.0
2017-Jan-15 19:33N 39°16' W 076°35'0 0.0
2017-Jan-15 18:33N 39°16' W 076°35'0 0.0
2017-Jan-15 17:33N 39°16' W 076°35'0 0.0
2017-Jan-15 16:33N 39°16' W 076°35'0 0.0
2017-Jan-15 15:33N 39°16' W 076°35'0 0.0
2017-Jan-15 14:33N 39°16' W 076°35'0 0.0
2017-Jan-15 13:33N 39°16' W 076°35'1 0.7
2017-Jan-15 12:33N 39°16' W 076°34'2 2.2
2017-Jan-15 11:33N 39°14' W 076°32'0 0.3
2017-Jan-15 10:32N 39°15' W 076°32'1 0.6
2017-Jan-15 09:33N 39°14' W 076°33'2 2.4
2017-Jan-15 08:33N 39°16' W 076°35'0 0.0
2017-Jan-15 07:33N 39°16' W 076°35'0 0.0
2017-Jan-15 06:33N 39°16' W 076°35'0 0.0
2017-Jan-15 05:33N 39°16' W 076°35'0 0.0
2017-Jan-15 04:33N 39°16' W 076°35'0 0.0
2017-Jan-15 03:33N 39°16' W 076°35'0 0.0
2017-Jan-15 02:33N 39°16' W 076°35'0 0.0
2017-Jan-15 01:33N 39°16' W 076°35'0 0.0
2017-Jan-15 00:33N 39°16' W 076°35'0 0.0
2017-Jan-14 23:33N 39°16' W 076°35'0 0.0
2017-Jan-14 22:34N 39°16' W 076°35'1 1.2
2017-Jan-14 21:33N 39°15' W 076°35'1 0.9
2017-Jan-14 20:33N 39°16' W 076°34'0 0.4
2017-Jan-14 19:33N 39°16' W 076°35'0 0.0
2017-Jan-14 18:32N 39°16' W 076°35'0 0.0
2017-Jan-14 17:33N 39°16' W 076°35'0 0.0
2017-Jan-14 16:34N 39°16' W 076°35'0 0.0
2017-Jan-14 15:33N 39°16' W 076°35'0 0.0
2017-Jan-14 14:33N 39°16' W 076°35'0 0.0
2017-Jan-14 13:34N 39°16' W 076°35'0 0.0
2017-Jan-14 12:33N 39°16' W 076°35'2 1.6
2017-Jan-14 11:34N 39°15' W 076°33'1 1.1
2017-Jan-14 10:34N 39°14' W 076°33'2 2.3
2017-Jan-14 09:33N 39°16' W 076°35'0 0.0
2017-Jan-14 08:33N 39°16' W 076°35'0 0.0
2017-Jan-14 07:33N 39°16' W 076°35'0 0.0
2017-Jan-14 06:33N 39°16' W 076°35'0 0.0
2017-Jan-14 05:33N 39°16' W 076°35'0 0.0
2017-Jan-14 04:30N 39°16' W 076°35'0 0.0
2017-Jan-14 03:33N 39°16' W 076°35'0 0.0
2017-Jan-13 23:33N 39°16' W 076°35'0 0.0
2017-Jan-13 22:32N 39°16' W 076°35'0 0.0
2017-Jan-13 21:33N 39°16' W 076°35'0 0.5
2017-Jan-13 20:32N 39°16' W 076°35'0 0.2
2017-Jan-13 19:30N 39°16' W 076°35'2 1.8
2017-Jan-13 18:34N 39°15' W 076°34'1 1.2
2017-Jan-13 17:30N 39°16' W 076°35'0 0.4
2017-Jan-13 16:33N 39°16' W 076°34'0 0.4
2017-Jan-13 15:33N 39°16' W 076°35'0 0.0
2017-Jan-13 14:34N 39°16' W 076°35'0 0.0
2017-Jan-13 13:34N 39°16' W 076°35'0 0.0
2017-Jan-13 12:34N 39°16' W 076°35'0 0.0
2017-Jan-13 11:33N 39°16' W 076°35'0 0.0
2017-Jan-13 10:33N 39°16' W 076°35'0 0.0
2017-Jan-13 09:33N 39°16' W 076°35'0 0.0
2017-Jan-13 08:33N 39°16' W 076°35'0 0.0
2017-Jan-13 07:34N 39°16' W 076°35'0 0.0
2017-Jan-13 06:34N 39°16' W 076°35'0 0.0
2017-Jan-13 05:33N 39°16' W 076°35'0 0.0
2017-Jan-13 04:34N 39°16' W 076°35'2 1.6
2017-Jan-13 03:34N 39°15' W 076°33'2 1.6
2017-Jan-13 02:34N 39°16' W 076°35'0 0.0
2017-Jan-13 01:33N 39°16' W 076°35'0 0.0
2017-Jan-13 00:32N 39°16' W 076°35'0 0.0
2017-Jan-12 23:33N 39°16' W 076°35'0 0.0
2017-Jan-12 22:33N 39°16' W 076°35'0 0.0
2017-Jan-12 21:33N 39°16' W 076°35'0 0.0
2017-Jan-12 20:33N 39°16' W 076°35'1 0.8
2017-Jan-12 19:33N 39°15' W 076°35'2 2.5
2017-Jan-12 18:33N 39°14' W 076°32'3 3.1
2017-Jan-12 17:33N 39°16' W 076°35'0 0.0
2017-Jan-12 16:33N 39°16' W 076°35'0 0.0
2017-Jan-12 15:33N 39°16' W 076°35'0 0.0
2017-Jan-12 14:34N 39°16' W 076°35'0 0.0
2017-Jan-12 13:33N 39°16' W 076°35'0 0.0
2017-Jan-12 12:34N 39°16' W 076°35'0 0.0
2017-Jan-12 11:33N 39°16' W 076°35'0 0.0
2017-Jan-12 10:33N 39°16' W 076°35'0 0.0
2017-Jan-12 09:34N 39°16' W 076°35'0 0.0
2017-Jan-12 08:34N 39°16' W 076°35'0 0.0
2017-Jan-12 07:34N 39°16' W 076°35'3 3.0
2017-Jan-12 06:33N 39°14' W 076°32'3 2.8
2017-Jan-12 05:33N 39°16' W 076°35'0 0.3
2017-Jan-12 04:30N 39°16' W 076°35'0 0.0
2017-Jan-12 03:32N 39°16' W 076°35'1 0.7
2017-Jan-12 02:33N 39°16' W 076°34'1 0.6
2017-Jan-12 01:30N 39°16' W 076°35'0 0.0
2017-Jan-12 00:30N 39°16' W 076°35'2 1.7
2017-Jan-11 23:34N 39°15' W 076°33'1 1.3
2017-Jan-11 22:34N 39°14' W 076°32'3 2.6
2017-Jan-11 21:33N 39°16' W 076°35'0 0.3
2017-Jan-11 20:33N 39°16' W 076°35'0 0.0
2017-Jan-11 19:33N 39°16' W 076°35'0 0.0
2017-Jan-11 18:33N 39°16' W 076°35'1 0.9
2017-Jan-11 17:34N 39°15' W 076°34'3 2.9
2017-Jan-11 16:34N 39°13' W 076°32'4 3.8
2017-Jan-11 15:34N 39°16' W 076°35'0 0.0
2017-Jan-11 14:33N 39°16' W 076°35'0 0.0
2017-Jan-11 13:34N 39°16' W 076°35'0 0.0
2017-Jan-11 12:34N 39°16' W 076°35'0 0.0
2017-Jan-11 11:33N 39°16' W 076°35'0 0.0
2017-Jan-11 10:34N 39°16' W 076°35'0 0.0
2017-Jan-11 09:33N 39°16' W 076°35'0 0.0
2017-Jan-11 08:34N 39°16' W 076°35'0 0.0
2017-Jan-11 07:33N 39°16' W 076°35'0 0.0
2017-Jan-11 06:34N 39°16' W 076°35'0 0.0
2017-Jan-11 05:34N 39°16' W 076°35'0 0.0
2017-Jan-11 04:34N 39°16' W 076°35'0 0.0
2017-Jan-11 03:34N 39°16' W 076°35'0 0.0
2017-Jan-11 02:34N 39°16' W 076°35'0 0.0
2017-Jan-11 01:34N 39°16' W 076°35'0 0.0
2017-Jan-11 00:34N 39°16' W 076°35'0 0.0
2017-Jan-10 23:34N 39°16' W 076°35'0 0.0
2017-Jan-10 22:34N 39°16' W 076°35'0 0.0
2017-Jan-10 21:33N 39°16' W 076°35'1 1.2
2017-Jan-10 20:34N 39°15' W 076°35'1 1.2
2017-Jan-10 19:34N 39°16' W 076°35'  
Track history (hours):
 
Tides and Currents Weather Stations Pressure Air Temp Water Temp Dewpoint Dewpoint Depression Visibility Wind Speed Wind Dir Waves Ship Positions

Kaleen Mc Allister

Owner: MC ALLISTER TOWING & TRANSPORTATION INC, NEW YORK, NY. More information available from US FCC via Universal Licensing System and Coast Guard Vessel Documentation Center.

Last reported at 2017-Jan-20 19:33 UTC. Time now 2017-Jan-20 20:11 UTC.
Position N 39°16' W 076°35'.

Length 31 m; draft 4 m.

Type: Tug. MMSI: 366891960.

Date/timePositionNaut miles runAvg speedWind from/ knotsBaromVisibWave heightAir tempDewpointWater temp
2017-Jan-20 19:33N 39°16' W 076°35'0 0.0
2017-Jan-20 18:25N 39°16' W 076°35'0 0.0
2017-Jan-20 17:33N 39°16' W 076°35'0 0.0
2017-Jan-20 16:33N 39°16' W 076°35'0 0.0
2017-Jan-20 15:33N 39°16' W 076°35'0 0.0
2017-Jan-20 14:31N 39°16' W 076°35'0 0.0
2017-Jan-20 13:31N 39°16' W 076°35'0 0.0
2017-Jan-20 12:33N 39°16' W 076°35'0 0.0
2017-Jan-20 11:33N 39°16' W 076°35'0 0.0
2017-Jan-20 10:33N 39°16' W 076°35'0 0.0
2017-Jan-20 09:33N 39°16' W 076°35'0 0.0
2017-Jan-20 08:33N 39°16' W 076°35'0 0.0
2017-Jan-20 07:33N 39°16' W 076°35'0 0.0
2017-Jan-20 06:33N 39°16' W 076°35'0 0.0
2017-Jan-20 05:33N 39°16' W 076°35'0 0.0
2017-Jan-20 04:33N 39°16' W 076°35'0 0.0
2017-Jan-20 03:33N 39°16' W 076°35'0 0.0
2017-Jan-20 02:31N 39°16' W 076°35'0 0.0
2017-Jan-20 01:30N 39°16' W 076°35'0 0.0
2017-Jan-20 00:33N 39°16' W 076°35'0 0.0
2017-Jan-19 23:33N 39°16' W 076°35'0 0.0
2017-Jan-19 22:33N 39°16' W 076°35'0 0.1
2017-Jan-19 21:33N 39°16' W 076°35'3 2.8
2017-Jan-19 20:32N 39°13' W 076°35'3 2.8
2017-Jan-19 19:33N 39°16' W 076°35'0 0.0
2017-Jan-19 17:33N 39°16' W 076°35'0 0.0
2017-Jan-19 16:32N 39°16' W 076°35'0 0.0
2017-Jan-19 15:33N 39°16' W 076°35'0 0.0
2017-Jan-19 14:32N 39°16' W 076°35'0 0.0
2017-Jan-19 13:33N 39°16' W 076°35'0 0.0
2017-Jan-19 12:33N 39°16' W 076°35'0 0.0
2017-Jan-19 11:33N 39°16' W 076°35'0 0.0
2017-Jan-19 10:33N 39°16' W 076°35'2 1.6
2017-Jan-19 09:33N 39°15' W 076°34'4 4.2
2017-Jan-19 08:33N 39°13' W 076°29'1 1.1
2017-Jan-19 07:33N 39°12' W 076°30'6 5.6
2017-Jan-19 06:33N 39°16' W 076°35'0 0.0
2017-Jan-19 05:33N 39°16' W 076°35'0 0.0
2017-Jan-19 04:33N 39°16' W 076°35'0 0.0
2017-Jan-19 03:33N 39°16' W 076°35'0 0.0
2017-Jan-19 02:33N 39°16' W 076°35'0 0.0
2017-Jan-19 01:33N 39°16' W 076°35'0 0.0
2017-Jan-19 00:33N 39°16' W 076°35'1 1.1
2017-Jan-18 23:33N 39°15' W 076°35'1 1.1
2017-Jan-18 22:33N 39°16' W 076°35'0 0.0
2017-Jan-18 21:33N 39°16' W 076°35'0 0.0
2017-Jan-18 20:33N 39°16' W 076°35'0 0.0
2017-Jan-18 19:33N 39°16' W 076°35'1 0.9
2017-Jan-18 18:33N 39°15' W 076°34'2 1.7
2017-Jan-18 17:33N 39°15' W 076°32'1 1.0
2017-Jan-18 16:33N 39°14' W 076°33'1 1.1
2017-Jan-18 15:32N 39°13' W 076°33'1 1.3
2017-Jan-18 14:33N 39°14' W 076°32'0 0.0
2017-Jan-18 13:33N 39°14' W 076°32'1 1.0
2017-Jan-18 12:33N 39°15' W 076°32'1 0.9
2017-Jan-18 11:33N 39°15' W 076°33'1 1.3
2017-Jan-18 10:33N 39°16' W 076°34'0 0.4
2017-Jan-18 09:30N 39°16' W 076°35'0 0.0
2017-Jan-18 08:30N 39°16' W 076°35'0 0.0
2017-Jan-18 07:30N 39°16' W 076°35'0 0.0
2017-Jan-18 06:30N 39°16' W 076°35'0 0.0
2017-Jan-18 05:30N 39°16' W 076°35'0 0.0
2017-Jan-18 04:25N 39°16' W 076°35'0 0.0
2017-Jan-18 03:30N 39°16' W 076°35'0 0.0
2017-Jan-18 02:30N 39°16' W 076°35'0 0.0
2017-Jan-18 01:30N 39°16' W 076°35'0 0.0
2017-Jan-18 00:30N 39°16' W 076°35'0 0.0
2017-Jan-17 23:30N 39°16' W 076°35'0 0.0
2017-Jan-17 22:30N 39°16' W 076°35'0 0.0
2017-Jan-17 21:30N 39°16' W 076°35'0 0.0
2017-Jan-17 20:30N 39°16' W 076°35'0 0.0
2017-Jan-17 19:30N 39°16' W 076°35'0 0.0
2017-Jan-17 18:30N 39°16' W 076°35'0 0.0
2017-Jan-17 17:33N 39°16' W 076°35'0 0.0
2017-Jan-17 16:30N 39°16' W 076°35'0 0.0
2017-Jan-17 15:30N 39°16' W 076°35'0 0.0
2017-Jan-17 14:33N 39°16' W 076°35'0 0.0
2017-Jan-17 13:33N 39°16' W 076°35'0 0.0
2017-Jan-17 12:33N 39°16' W 076°35'2 2.4
2017-Jan-17 11:33N 39°14' W 076°33'2 2.5
2017-Jan-17 10:33N 39°16' W 076°35'0 0.0
2017-Jan-17 09:33N 39°16' W 076°35'0 0.0
2017-Jan-17 08:33N 39°16' W 076°35'0 0.0
2017-Jan-17 07:33N 39°16' W 076°35'0 0.0
2017-Jan-17 06:33N 39°16' W 076°35'0 0.0
2017-Jan-17 05:33N 39°16' W 076°35'0 0.0
2017-Jan-17 04:33N 39°16' W 076°35'0 0.0
2017-Jan-17 03:33N 39°16' W 076°35'0 0.0
2017-Jan-17 02:33N 39°16' W 076°35'0 0.0
2017-Jan-17 01:33N 39°16' W 076°35'0 0.0
2017-Jan-17 00:33N 39°16' W 076°35'0 0.0
2017-Jan-16 23:33N 39°16' W 076°35'0 0.0
2017-Jan-16 22:33N 39°16' W 076°35'0 0.3
2017-Jan-16 21:33N 39°16' W 076°34'0 0.4
2017-Jan-16 20:33N 39°16' W 076°35'0 0.1
2017-Jan-16 19:33N 39°16' W 076°35'0 0.0
2017-Jan-16 18:33N 39°16' W 076°35'0 0.0
2017-Jan-16 17:33N 39°16' W 076°35'0 0.0
2017-Jan-16 16:31N 39°16' W 076°35'0 0.0
2017-Jan-16 15:33N 39°16' W 076°35'0 0.0
2017-Jan-16 14:33N 39°16' W 076°35'0 0.0
2017-Jan-16 13:33N 39°16' W 076°35'0 0.0
2017-Jan-16 12:33N 39°16' W 076°35'0 0.0
2017-Jan-16 11:33N 39°16' W 076°35'0 0.0
2017-Jan-16 10:33N 39°16' W 076°35'0 0.0
2017-Jan-16 09:33N 39°16' W 076°35'0 0.0
2017-Jan-16 08:33N 39°16' W 076°35'0 0.0
2017-Jan-16 07:33N 39°16' W 076°35'0 0.0
2017-Jan-16 06:33N 39°16' W 076°35'0 0.0
2017-Jan-16 05:33N 39°16' W 076°35'0 0.0
2017-Jan-16 04:33N 39°16' W 076°35'0 0.0
2017-Jan-16 03:33N 39°16' W 076°35'0 0.0
2017-Jan-16 02:33N 39°16' W 076°35'0 0.0
2017-Jan-16 01:33N 39°16' W 076°35'0 0.0
2017-Jan-16 00:33N 39°16' W 076°35'0 0.0
2017-Jan-15 23:33N 39°16' W 076°35'0 0.0
2017-Jan-15 22:33N 39°16' W 076°35'0 0.0
2017-Jan-15 21:33N 39°16' W 076°35'0 0.0
2017-Jan-15 20:33N 39°16' W 076°35'0 0.0
2017-Jan-15 19:33N 39°16' W 076°35'0 0.0
2017-Jan-15 18:33N 39°16' W 076°35'0 0.0
2017-Jan-15 17:33N 39°16' W 076°35'0 0.0
2017-Jan-15 16:33N 39°16' W 076°35'0 0.0
2017-Jan-15 15:33N 39°16' W 076°35'0 0.0
2017-Jan-15 14:33N 39°16' W 076°35'0 0.0
2017-Jan-15 13:33N 39°16' W 076°35'1 0.7
2017-Jan-15 12:33N 39°16' W 076°34'2 2.2
2017-Jan-15 11:33N 39°14' W 076°32'0 0.3
2017-Jan-15 10:32N 39°15' W 076°32'1 0.6
2017-Jan-15 09:33N 39°14' W 076°33'2 2.4
2017-Jan-15 08:33N 39°16' W 076°35'0 0.0
2017-Jan-15 07:33N 39°16' W 076°35'0 0.0
2017-Jan-15 06:33N 39°16' W 076°35'0 0.0
2017-Jan-15 05:33N 39°16' W 076°35'0 0.0
2017-Jan-15 04:33N 39°16' W 076°35'0 0.0
2017-Jan-15 03:33N 39°16' W 076°35'0 0.0
2017-Jan-15 02:33N 39°16' W 076°35'0 0.0
2017-Jan-15 01:33N 39°16' W 076°35'0 0.0
2017-Jan-15 00:33N 39°16' W 076°35'0 0.0
2017-Jan-14 23:33N 39°16' W 076°35'0 0.0
2017-Jan-14 22:34N 39°16' W 076°35'1 1.2
2017-Jan-14 21:33N 39°15' W 076°35'1 0.9
2017-Jan-14 20:33N 39°16' W 076°34'0 0.4
2017-Jan-14 19:33N 39°16' W 076°35'0 0.0
2017-Jan-14 18:32N 39°16' W 076°35'0 0.0
2017-Jan-14 17:33N 39°16' W 076°35'0 0.0
2017-Jan-14 16:34N 39°16' W 076°35'0 0.0
2017-Jan-14 15:33N 39°16' W 076°35'0 0.0
2017-Jan-14 14:33N 39°16' W 076°35'0 0.0
2017-Jan-14 13:34N 39°16' W 076°35'0 0.0
2017-Jan-14 12:33N 39°16' W 076°35'2 1.6
2017-Jan-14 11:34N 39°15' W 076°33'1 1.1
2017-Jan-14 10:34N 39°14' W 076°33'2 2.3
2017-Jan-14 09:33N 39°16' W 076°35'0 0.0
2017-Jan-14 08:33N 39°16' W 076°35'0 0.0
2017-Jan-14 07:33N 39°16' W 076°35'0 0.0
2017-Jan-14 06:33N 39°16' W 076°35'0 0.0
2017-Jan-14 05:33N 39°16' W 076°35'0 0.0
2017-Jan-14 04:30N 39°16' W 076°35'0 0.0
2017-Jan-14 03:33N 39°16' W 076°35'0 0.0
2017-Jan-13 23:33N 39°16' W 076°35'0 0.0
2017-Jan-13 22:32N 39°16' W 076°35'0 0.0
2017-Jan-13 21:33N 39°16' W 076°35'0 0.5
2017-Jan-13 20:32N 39°16' W 076°35'0 0.2
2017-Jan-13 19:30N 39°16' W 076°35'2 1.8
2017-Jan-13 18:34N 39°15' W 076°34'1 1.2
2017-Jan-13 17:30N 39°16' W 076°35'0 0.4
2017-Jan-13 16:33N 39°16' W 076°34'0 0.4
2017-Jan-13 15:33N 39°16' W 076°35'0 0.0
2017-Jan-13 14:34N 39°16' W 076°35'0 0.0
2017-Jan-13 13:34N 39°16' W 076°35'0 0.0
2017-Jan-13 12:34N 39°16' W 076°35'0 0.0
2017-Jan-13 11:33N 39°16' W 076°35'0 0.0
2017-Jan-13 10:33N 39°16' W 076°35'0 0.0
2017-Jan-13 09:33N 39°16' W 076°35'0 0.0
2017-Jan-13 08:33N 39°16' W 076°35'0 0.0
2017-Jan-13 07:34N 39°16' W 076°35'0 0.0
2017-Jan-13 06:34N 39°16' W 076°35'0 0.0
2017-Jan-13 05:33N 39°16' W 076°35'0 0.0
2017-Jan-13 04:34N 39°16' W 076°35'2 1.6
2017-Jan-13 03:34N 39°15' W 076°33'2 1.6
2017-Jan-13 02:34N 39°16' W 076°35'0 0.0
2017-Jan-13 01:33N 39°16' W 076°35'0 0.0
2017-Jan-13 00:32N 39°16' W 076°35'0 0.0
2017-Jan-12 23:33N 39°16' W 076°35'0 0.0
2017-Jan-12 22:33N 39°16' W 076°35'0 0.0
2017-Jan-12 21:33N 39°16' W 076°35'0 0.0
2017-Jan-12 20:33N 39°16' W 076°35'1 0.8
2017-Jan-12 19:33N 39°15' W 076°35'2 2.5
2017-Jan-12 18:33N 39°14' W 076°32'3 3.1
2017-Jan-12 17:33N 39°16' W 076°35'0 0.0
2017-Jan-12 16:33N 39°16' W 076°35'0 0.0
2017-Jan-12 15:33N 39°16' W 076°35'0 0.0
2017-Jan-12 14:34N 39°16' W 076°35'0 0.0
2017-Jan-12 13:33N 39°16' W 076°35'0 0.0
2017-Jan-12 12:34N 39°16' W 076°35'0 0.0
2017-Jan-12 11:33N 39°16' W 076°35'0 0.0
2017-Jan-12 10:33N 39°16' W 076°35'0 0.0
2017-Jan-12 09:34N 39°16' W 076°35'0 0.0
2017-Jan-12 08:34N 39°16' W 076°35'0 0.0
2017-Jan-12 07:34N 39°16' W 076°35'3 3.0
2017-Jan-12 06:33N 39°14' W 076°32'3 2.8
2017-Jan-12 05:33N 39°16' W 076°35'0 0.3
2017-Jan-12 04:30N 39°16' W 076°35'0 0.0
2017-Jan-12 03:32N 39°16' W 076°35'1 0.7
2017-Jan-12 02:33N 39°16' W 076°34'1 0.6
2017-Jan-12 01:30N 39°16' W 076°35'0 0.0
2017-Jan-12 00:30N 39°16' W 076°35'2 1.7
2017-Jan-11 23:34N 39°15' W 076°33'1 1.3
2017-Jan-11 22:34N 39°14' W 076°32'3 2.6
2017-Jan-11 21:33N 39°16' W 076°35'0 0.3
2017-Jan-11 20:33N 39°16' W 076°35'0 0.0
2017-Jan-11 19:33N 39°16' W 076°35'0 0.0
2017-Jan-11 18:33N 39°16' W 076°35'1 0.9
2017-Jan-11 17:34N 39°15' W 076°34'3 2.9
2017-Jan-11 16:34N 39°13' W 076°32'4 3.8
2017-Jan-11 15:34N 39°16' W 076°35'0 0.0
2017-Jan-11 14:33N 39°16' W 076°35'0 0.0
2017-Jan-11 13:34N 39°16' W 076°35'0 0.0
2017-Jan-11 12:34N 39°16' W 076°35'0 0.0
2017-Jan-11 11:33N 39°16' W 076°35'0 0.0
2017-Jan-11 10:34N 39°16' W 076°35'0 0.0
2017-Jan-11 09:33N 39°16' W 076°35'0 0.0
2017-Jan-11 08:34N 39°16' W 076°35'0 0.0
2017-Jan-11 07:33N 39°16' W 076°35'0 0.0
2017-Jan-11 06:34N 39°16' W 076°35'0 0.0
2017-Jan-11 05:34N 39°16' W 076°35'0 0.0
2017-Jan-11 04:34N 39°16' W 076°35'0 0.0
2017-Jan-11 03:34N 39°16' W 076°35'0 0.0
2017-Jan-11 02:34N 39°16' W 076°35'0 0.0
2017-Jan-11 01:34N 39°16' W 076°35'0 0.0
2017-Jan-11 00:34N 39°16' W 076°35'0 0.0
2017-Jan-10 23:34N 39°16' W 076°35'0 0.0
2017-Jan-10 22:34N 39°16' W 076°35'0 0.0
2017-Jan-10 21:33N 39°16' W 076°35'1 1.2
2017-Jan-10 20:34N 39°15' W 076°35'1 1.2
2017-Jan-10 19:34N 39°16' W 076°35'  

Dump ship's entire track history